Latest Weather Observations for Hogan Island

IDV60801

Issued at 9:02 am EDT Sunday 2 October 2016 (issued every 30 minutes, with the page automatically refreshed every 10 minutes)

About weather observations | Map of weather stations | Latest weather observations for VIC | Other Formats
Station Details ID: 200838 Name: HOGAN ISLAND Lat: -39.22 Lon: 146.98 Height: 116.0 m
Data from the previous 72 hours. | See also: Recent months at Hogan Island
Date/Time
EDT
Temp
°C
App
Temp
°C
Dew
Point
°C
Rel
Hum
%
Delta-T
°C
Wind Press
QNH
hPa
Press
MSL
hPa
Rain since
9am
mm
Dir  Spd
km/h
Gust
km/h
Spd
kts
Gust
kts
02/09:00am 13.8 8.5 9.8 77 2.1 NE 28 32 15 17 1006.3 - 0.2
02/08:30am 12.8 8.3 8.7 76 2.1 NNE 22 30 12 16 1006.3 - 0.2
02/08:00am 12.2 8.1 7.7 74 2.2 N 19 22 10 12 1006.6 - 0.2
02/07:30am 11.5 5.8 6.6 72 2.3 NW 26 33 14 18 1006.4 - 0.2
02/07:00am 10.8 7.3 7.1 78 1.8 NNW 15 19 8 10 1006.0 1006.0 0.2
02/06:30am 11.2 6.1 7.5 78 1.8 NW 24 30 13 16 1005.7 - 0.2
02/06:00am 11.4 6.4 8.1 80 1.6 WNW 24 28 13 15 1005.7 - 0.2
02/05:30am 11.8 5.6 7.7 76 2.0 WNW 30 33 16 18 1005.6 - 0.2
02/05:00am 11.3 6.6 7.8 79 1.7 WNW 22 28 12 15 1005.7 - 0.2
02/04:30am 11.6 4.5 8.1 79 1.7 WNW 35 41 19 22 1005.6 - 0.2
02/04:00am 11.4 3.1 7.9 79 1.7 WNW 41 46 22 25 1005.5 1005.5 0.2
02/03:30am 11.7 3.2 8.4 80 1.6 WNW 43 48 23 26 1005.7 - 0.2
02/03:00am 11.6 5.2 9.2 85 1.2 WNW 33 41 18 22 1005.8 - 0.2
02/01:30am 11.6 4.5 9.7 88 1.0 WNW 37 43 20 23 1005.6 - 0.2
02/01:00am 11.8 5.7 9.7 87 1.1 WNW 32 37 17 20 1006.0 - 0.2
02/12:30am 11.6 3.7 9.3 86 1.2 W 41 46 22 25 1005.6 - 0.2
02/12:00am 11.8 4.3 9.4 85 1.2 W 39 46 21 25 1005.7 1005.7 0.2
 
Date/Time
EDT
Temp
°C
App
Temp
°C
Dew
Point
°C
Rel
Hum
%
Delta-T
°C
Wind Press
QNH
hPa
Press
MSL
hPa
Rain since
9am
mm
Dir  Spd
km/h
Gust
km/h
Spd
kts
Gust
kts
01/11:30pm 11.7 2.1 9.3 85 1.2 W 50 57 27 31 1005.5 - 0.2
01/11:00pm 11.9 1.6 9.5 85 1.2 W 54 61 29 33 1005.4 - 0.2
01/10:30pm 11.7 2.9 9.6 87 1.1 W 46 57 25 31 1005.6 - 0.2
01/10:00pm 11.7 0.9 9.8 88 1.0 W 57 69 31 37 1004.7 - 0.2
01/09:30pm 11.7 0.8 9.6 87 1.1 W 57 65 31 35 1004.8 - 0.2
01/09:00pm 11.9 2.8 10.0 88 1.0 W 48 57 26 31 1005.3 1005.3 0.2
01/08:30pm 12.0 1.3 10.2 89 0.9 W 57 69 31 37 1004.6 - 0.2
01/08:00pm 11.9 -0.4 10.1 89 0.9 W 65 72 35 39 1004.0 - 0.2
01/07:30pm 12.1 -0.1 10.5 90 0.8 W 65 80 35 43 1003.5 - 0.2
01/07:00pm 12.0 -1.2 10.2 89 0.9 W 70 82 38 44 1002.8 - 0.2
01/06:30pm 12.0 -2.7 10.2 89 0.9 W 78 87 42 47 1002.1 - 0.2
01/06:00pm 12.0 -2.2 10.6 91 0.7 W 76 89 41 48 1001.4 1001.4 0.2
01/05:30pm 11.5 -2.5 10.1 91 0.7 W 74 95 40 51 1001.0 - 0.0
01/05:19pm 11.7 -1.5 10.1 90 0.8 W 70 89 38 48 1000.8 - 0.0
01/05:00pm 12.7 -0.8 10.6 87 1.1 W 72 82 39 44 1000.9 - 0.0
01/04:30pm 12.9 -0.5 10.8 87 1.1 W 72 83 39 45 1000.1 - 0.0
01/04:00pm 13.2 0.1 10.7 85 1.3 W 70 80 38 43 999.5 - 0.0
01/03:30pm 13.7 1.8 11.4 86 1.2 W 65 74 35 40 999.5 - 0.0
01/03:00pm 13.5 2.3 11.2 86 1.2 W 61 72 33 39 999.3 999.3 0.0
01/02:30pm 13.1 2.0 11.5 90 0.9 W 61 72 33 39 999.2 - 0.0
01/02:00pm 12.6 1.3 10.8 89 0.9 W 61 69 33 37 999.2 - 0.0
01/01:30pm 12.2 1.1 10.3 88 1.0 W 59 72 32 39 999.1 - 0.0
01/01:00pm 13.9 2.9 10.7 81 1.7 W 59 74 32 40 999.0 - 0.0
01/12:30pm 13.9 2.6 10.9 82 1.6 W 61 69 33 37 998.9 - 0.0
01/12:00pm 13.4 2.7 10.4 82 1.6 W 57 69 31 37 998.9 998.9 0.0
01/11:30am 14.0 3.6 11.2 83 1.5 W 57 67 31 36 998.8 - 0.0
01/11:00am 13.7 2.6 11.4 86 1.2 W 61 70 33 38 998.5 - 0.0
01/10:30am 13.3 2.9 11.2 87 1.1 W 57 65 31 35 998.4 - 0.0
01/10:00am 12.8 2.3 11.0 89 0.9 W 57 69 31 37 998.2 - 0.0
01/09:30am 12.8 1.9 11.0 89 0.9 W 59 69 32 37 998.0 - 0.0
01/09:00am 12.6 3.1 11.0 90 0.8 W 52 61 28 33 997.9 997.9 5.2
01/08:30am 10.9 1.3 9.5 91 0.7 W 50 56 27 30 997.8 - 5.2
01/08:00am 11.3 2.3 10.2 93 0.6 W 48 56 26 30 997.3 - 5.2
01/07:30am 9.8 -2.4 9.0 95 0.4 WSW 63 76 34 41 996.6 - 5.2
01/07:24am 10.8 0.1 10.2 96 0.3 W 57 76 31 41 996.3 - 5.2
01/07:15am 11.1 1.0 10.5 96 0.3 WSW 54 80 29 43 996.3 - 5.0
01/07:12am 11.3 0.0 10.7 96 0.3 WNW 61 80 33 43 995.6 - 5.0
01/07:09am 11.3 -0.4 10.7 96 0.3 WNW 63 72 34 39 995.7 - 4.4
01/07:05am 11.3 4.9 10.7 96 0.3 WNW 35 54 19 29 996.2 - 4.4
01/07:00am 11.3 5.2 10.5 95 0.4 WNW 33 43 18 23 996.3 - 4.2
01/06:30am 10.8 3.4 10.0 95 0.4 WNW 39 48 21 26 995.9 - 3.4
01/06:00am 10.8 1.7 9.9 94 0.5 NW 48 57 26 31 995.6 995.5 2.8
01/05:48am 10.7 3.3 9.8 94 0.5 NW 39 59 21 32 995.5 - 2.6
01/05:30am 10.6 4.4 9.5 93 0.6 NNW 32 43 17 23 995.4 - 2.4
01/05:00am 10.4 5.7 9.2 92 0.6 NNW 24 33 13 18 995.4 - 1.2
01/04:30am 9.9 5.4 8.7 92 0.6 NNW 22 26 12 14 995.2 - 1.0
01/04:00am 10.4 3.9 8.8 90 0.8 NW 33 41 18 22 995.1 - 0.2
01/03:30am 10.5 3.2 8.9 90 0.8 WNW 37 46 20 25 994.9 - 0.0
01/03:00am 10.8 4.3 8.9 88 1.0 NW 33 41 18 22 995.1 995.0 0.0
01/02:30am 10.9 4.7 9.2 89 0.9 NW 32 37 17 20 995.1 - 0.0
01/02:00am 11.0 5.2 9.4 90 0.8 NW 30 37 16 20 995.2 - 0.0
01/01:30am 11.0 5.6 9.4 90 0.8 NW 28 37 15 20 995.4 - 0.0
01/01:00am 10.8 5.3 9.1 89 0.9 NW 28 33 15 18 995.5 - 0.0
01/12:30am 10.9 6.6 9.2 89 0.9 NW 22 28 12 15 995.4 - 0.0
01/12:00am 11.0 5.5 9.1 88 1.0 WNW 28 33 15 18 995.7 995.6 0.0
 
Date/Time
EDT
Temp
°C
App
Temp
°C
Dew
Point
°C
Rel
Hum
%
Delta-T
°C
Wind Press
QNH
hPa
Press
MSL
hPa
Rain since
9am
mm
Dir  Spd
km/h
Gust
km/h
Spd
kts
Gust
kts
30/11:30pm 11.1 6.7 9.0 87 1.0 WNW 22 30 12 16 996.0 - 0.0
30/11:00pm 11.3 7.5 9.0 86 1.2 NNW 19 30 10 16 996.2 - 0.0
30/10:30pm 11.3 7.4 8.7 84 1.3 WNW 19 20 10 11 996.2 - 0.0
30/10:00pm 11.4 8.0 9.0 85 1.2 WNW 17 20 9 11 996.3 - 0.0
30/09:30pm 11.0 7.8 8.4 84 1.3 WNW 15 17 8 9 996.4 - 0.0
30/09:00pm 10.6 7.7 8.0 84 1.3 W 13 15 7 8 996.1 996.2 0.0
30/08:30pm 10.7 8.9 7.8 82 1.4 WNW 7 9 4 5 996.0 - 0.0
30/08:00pm 10.8 7.9 8.0 83 1.4 WNW 13 17 7 9 995.8 - 0.0
30/07:30pm 10.7 7.0 7.9 83 1.4 W 17 19 9 10 995.4 - 0.0
30/07:00pm 10.7 7.4 8.1 84 1.3 W 15 19 8 10 994.9 - 0.0
30/06:30pm 10.9 7.6 8.0 82 1.4 WSW 15 19 8 10 994.6 - 0.0
30/06:00pm 11.4 8.1 7.9 79 1.7 WSW 15 19 8 10 994.3 994.3 0.0
30/05:30pm 12.5 8.9 8.2 75 2.1 WSW 17 20 9 11 993.8 - 0.0
30/05:00pm 12.6 8.0 8.3 75 2.1 WSW 22 26 12 14 993.6 - 0.0
30/04:30pm 13.9 9.7 9.7 76 2.2 SW 22 26 12 14 993.2 - 0.0
30/04:00pm 13.6 9.7 9.3 75 2.2 SW 20 26 11 14 992.7 - 0.0
30/03:30pm 14.9 11.2 9.3 69 2.9 WSW 19 24 10 13 992.4 - 0.0
30/03:00pm 15.1 10.8 9.5 69 2.9 SW 22 26 12 14 992.1 992.2 0.0
30/02:30pm 13.6 9.8 9.1 74 2.3 SW 19 22 10 12 991.8 - 0.0
30/02:00pm 13.9 10.2 9.3 74 2.4 WSW 19 20 10 11 991.6 - 0.0
30/01:30pm 13.9 10.1 8.9 72 2.5 SW 19 24 10 13 991.4 - 0.0
30/01:00pm 15.1 12.2 9.7 70 2.8 SW 15 19 8 10 991.3 - 0.0
30/12:30pm 15.9 12.9 10.7 71 2.8 SW 17 20 9 11 991.4 - 0.0
30/12:00pm 14.5 11.6 9.7 73 2.5 WSW 15 19 8 10 991.6 991.7 0.0
30/11:30am 14.2 12.2 10.0 76 2.2 W 11 15 6 8 991.5 - 0.0
30/11:00am 13.3 10.9 8.8 74 2.3 W 11 13 6 7 991.5 - 0.0
30/10:30am 14.5 11.6 9.5 72 2.6 WNW 15 17 8 9 991.2 - 0.0
30/10:00am 14.2 10.9 9.4 73 2.5 N 17 20 9 11 991.0 - 0.0
30/09:30am 13.5 10.2 9.4 76 2.1 NNE 17 20 9 11 991.0 - 0.0
30/09:00am 13.6 9.1 10.0 79 1.9 NNE 24 28 13 15 991.0 991.1 4.4
30/08:30am 12.7 8.1 9.7 82 1.5 NNE 24 30 13 16 990.9 - 4.4
30/08:00am 11.7 6.9 8.9 83 1.4 NNE 24 28 13 15 990.8 - 4.4
30/07:30am 11.5 7.4 8.7 83 1.4 ENE 20 22 11 12 990.9 - 4.4
30/07:00am 11.4 7.5 8.8 84 1.3 E 19 20 10 11 990.7 - 4.4
30/06:30am 10.3 5.6 7.9 85 1.2 ENE 22 24 12 13 990.7 - 4.4
30/06:00am 9.3 5.7 6.9 85 1.1 NE 15 17 8 9 990.1 990.2 4.4
30/05:30am 9.4 5.8 6.8 84 1.2 NE 15 17 8 9 989.7 - 4.4
30/05:00am 9.3 5.7 6.9 85 1.1 NE 15 17 8 9 989.6 - 4.4
30/04:30am 9.1 5.2 6.9 86 1.0 NE 17 19 9 10 989.8 - 4.4
30/04:00am 9.0 5.1 7.0 87 0.9 NNE 17 19 9 10 989.9 - 4.4
30/03:30am 9.6 5.5 7.9 89 0.8 NE 19 22 10 12 990.1 - 4.4
30/03:00am 9.6 5.9 7.9 89 0.8 NE 17 24 9 13 990.2 990.3 4.4
30/02:30am 10.1 5.6 8.4 89 0.8 E 22 24 12 13 990.4 - 4.4
30/02:00am 10.2 6.1 8.6 90 0.8 ENE 20 24 11 13 990.9 - 4.4
30/01:30am 10.4 4.8 8.7 89 0.8 ENE 28 32 15 17 991.4 - 4.4
30/01:00am 10.3 5.5 8.7 90 0.8 ENE 24 30 13 16 991.7 - 4.4
30/12:30am 10.3 5.5 8.9 91 0.7 E 24 28 13 15 992.1 - 4.4
30/12:00am 10.2 5.8 8.8 91 0.7 ENE 22 26 12 14 992.0 992.1 4.4
 
Date/Time
EDT
Temp
°C
App
Temp
°C
Dew
Point
°C
Rel
Hum
%
Delta-T
°C
Wind Press
QNH
hPa
Press
MSL
hPa
Rain since
9am
mm
Dir  Spd
km/h
Gust
km/h
Spd
kts
Gust
kts
29/11:30pm 10.1 6.2 8.7 91 0.7 ENE 19 20 10 11 991.7 - 4.4
29/11:00pm 10.2 6.1 8.6 90 0.8 ENE 20 24 11 13 991.5 - 4.4
29/10:30pm 10.2 6.6 8.5 89 0.8 E 17 20 9 11 991.7 - 4.4
29/10:00pm 10.0 6.7 8.1 88 0.9 E 15 19 8 10 992.0 - 4.4
29/09:30pm 10.0 7.0 7.9 87 1.0 ESE 13 15 7 8 991.9 - 4.4
29/09:00pm 10.6 8.9 8.2 85 1.2 ESE 7 9 4 5 991.9 992.0 4.4
29/08:30pm 10.9 10.5 8.1 83 1.4 CALM 0 0 0 0 991.9 - 4.4
29/08:00pm 10.4 8.8 7.8 84 1.3 ESE 6 9 3 5 991.9 - 4.4
29/07:30pm 10.7 9.1 8.1 84 1.3 S 6 9 3 5 991.8 - 4.4
29/07:00pm 10.0 7.2 7.1 82 1.4 SW 11 13 6 7 991.3 - 4.4
29/06:30pm 10.5 8.6 7.4 81 1.5 SW 7 9 4 5 991.2 - 4.4
29/06:00pm 11.1 9.0 8.1 82 1.5 SSW 9 13 5 7 991.0 991.1 4.4
29/05:30pm 12.3 10.1 9.5 83 1.4 WSW 11 15 6 8 990.4 - 4.4
29/05:00pm 12.3 9.4 9.7 84 1.3 W 15 17 8 9 989.9 - 4.4
29/04:30pm 12.5 9.4 10.4 87 1.1 WNW 17 20 9 11 989.6 - 4.4
29/04:00pm 12.1 8.6 10.3 89 0.9 W 19 20 10 11 989.1 - 4.4
29/03:30pm 10.6 5.8 9.0 90 0.8 W 24 26 13 14 989.0 - 4.4
29/03:00pm 9.9 5.0 8.3 90 0.8 WNW 24 35 13 19 989.2 989.3 4.2
29/02:30pm 10.7 1.4 9.0 89 0.8 WNW 48 57 26 31 988.7 - 3.4
29/02:00pm 10.8 0.1 9.6 92 0.6 WNW 56 67 30 36 988.2 - 3.4
29/01:58pm 11.0 0.2 9.9 93 0.6 WNW 57 67 31 36 988.1 - 3.4
29/01:56pm 11.3 5.3 10.2 93 0.6 NW 32 61 17 33 988.4 - 3.4
29/01:30pm 12.2 8.8 11.1 93 0.6 N 20 28 11 15 988.5 - 3.4
29/01:00pm 12.2 8.4 11.3 94 0.5 N 22 28 12 15 987.9 - 3.2
29/12:30pm 12.4 5.1 11.5 94 0.5 NNE 41 54 22 29 988.4 - 3.2
29/12:21pm 12.4 5.5 11.5 94 0.5 NNE 39 56 21 30 988.6 - 3.0
29/12:00pm 12.3 1.5 11.2 93 0.6 NNE 59 70 32 38 988.6 988.6 2.8
29/11:30am 12.4 2.2 11.3 93 0.6 NE 56 72 30 39 988.7 - 2.8
29/11:00am 12.3 2.4 11.2 93 0.6 NE 54 67 29 36 988.7 - 2.2
29/10:30am 12.3 1.5 11.2 93 0.6 NE 59 72 32 39 988.7 - 1.8
29/10:00am 12.0 0.7 10.9 93 0.6 NE 61 74 33 40 988.8 - 1.2
29/09:30am 12.1 0.5 11.0 93 0.6 NE 63 74 34 40 989.4 - 0.6
29/09:00am 12.1 -0.9 10.8 92 0.7 NE 70 91 38 49 989.5 989.6 3.6
29/08:55am 12.1 -0.7 10.8 92 0.7 NE 69 91 37 49 989.2 - 3.6
29/08:30am 12.2 -0.2 10.9 92 0.7 ENE 67 76 36 41 989.4 - 3.6

Other Formats:

Comma delimited format used in spreadsheet applications
http://www.bom.gov.au/fwo/IDV60801/IDV60801.94949.axf

JavaScript Object Notation format (JSON) in row-major order
http://www.bom.gov.au/fwo/IDV60801/IDV60801.94949.json